メインページ
METAR-TAF:

METAR-TAF

空港 :

ヒヒフォ空港

ウォリス, フランス

緯度: 13-14S, 経度: 176-10W, 海抜: 23m

METAR: 見つかりません

時間: 15:53 (03:53 UTC)

予報

当レポートは4時間53分前の23:00(UTC)に作成
予報は25日の 00時(UTC)から 25日の 24時(UTC)まで有効
の風 12kt
視程10km以上
高度1600ftの雲は散在している
高度4000ftの千切れ雲あり
25日の 00時(UTC)から 25日の 18時(UTC)まで一時的に
視程: 4000m
高度1400ftの千切れ雲あり
高度1800ftの雲は散在している, 塔状積雲.
にわか雨
確率 40% :
25日の 00時(UTC)から 25日の 10時(UTC)まで一時的に
視程: 2000m
高度900ftの千切れ雲あり
高度1800ftの雲は散在している, 積乱雲.
激しい雷雨, 雨

TAF: NLWW 242300Z 2500/2524 08012KT 9999 SCT016 BKN040 TEMPO 2500/2518 4000 SHRA BKN014 SCT018TCU PROB40 TEMPO 2500/2510 2000 TSRA BKN009 SCT018CB

4,000以上の空港の気象観測と天気予報(METAR報とTAF報)

利用可能な観測所は地図上に黄色い丸と赤い丸で示す。

丸の上にカーソルを重ねると観測所名を参照できる。

次にクリックすると気象観測と天気予報を参照できる。

マップの切り替え:黒色「×」印の緑ボタンをクリックして拡大、「-」印の緑ボタンをクリックして縮小、緑色の三角印をクリックして隣りの地図に切り替え


METAR-TAF: